createdAt,value
2022-11-01T00:00:54.413Z,6.47
2022-11-01T00:03:45.010Z,7.43
2022-11-01T00:06:34.744Z,8.87
2022-11-01T00:09:24.085Z,8.80
2022-11-01T00:12:13.460Z,7.43
2022-11-01T00:15:02.663Z,9.00
2022-11-01T00:17:51.949Z,12.03
2022-11-01T00:20:42.721Z,14.27
2022-11-01T00:23:31.939Z,15.23
2022-11-01T00:26:24.043Z,15.23
2022-11-01T00:29:14.343Z,12.43
2022-11-01T00:32:03.559Z,17.33
2022-11-01T00:34:53.149Z,15.27
2022-11-01T00:37:43.769Z,15.07
2022-11-01T00:40:33.078Z,15.40
2022-11-01T00:43:22.320Z,15.60
2022-11-01T00:46:12.369Z,16.73
2022-11-01T00:49:01.939Z,13.10
2022-11-01T00:51:52.780Z,12.03
2022-11-01T00:54:43.679Z,16.00
2022-11-01T00:57:32.938Z,14.27
2022-11-01T01:00:22.321Z,14.77
2022-11-01T01:03:11.665Z,18.17
2022-11-01T01:06:01.381Z,20.17
2022-11-01T01:08:50.618Z,17.40
2022-11-01T01:11:41.460Z,20.70
2022-11-01T01:14:32.455Z,17.27
2022-11-01T01:17:22.330Z,17.10
2022-11-01T01:20:12.599Z,18.63
2022-11-01T01:23:01.838Z,22.13
2022-11-01T01:25:51.409Z,18.57
2022-11-01T01:28:44.711Z,19.90
2022-11-01T01:31:34.146Z,19.20
2022-11-01T01:34:23.537Z,16.23
2022-11-01T01:37:15.994Z,23.73
2022-11-01T01:40:06.665Z,21.43
2022-11-01T01:42:55.864Z,20.33
2022-11-01T01:45:46.664Z,17.97
2022-11-01T01:48:36.161Z,17.37
2022-11-01T01:51:27.820Z,25.00
2022-11-01T01:54:17.120Z,18.97
2022-11-01T01:57:07.744Z,20.60
2022-11-01T01:59:56.981Z,22.07
2022-11-01T02:02:48.348Z,18.73
2022-11-01T02:05:45.639Z,20.20
2022-11-01T02:08:35.741Z,18.43
2022-11-01T02:11:25.541Z,19.80
2022-11-01T02:14:41.081Z,17.57
2022-11-01T02:17:35.438Z,20.70
2022-11-01T02:21:15.934Z,19.33
2022-11-01T02:25:00.167Z,16.77
2022-11-01T02:28:09.941Z,22.27
2022-11-01T02:31:09.461Z,24.63
2022-11-01T02:38:09.169Z,17.67
2022-11-01T02:41:13.601Z,20.57
2022-11-01T02:44:05.644Z,28.37
2022-11-01T02:58:23.495Z,20.27
2022-11-01T03:01:16.931Z,25.23
2022-11-01T03:04:06.540Z,20.57
2022-11-01T03:11:12.645Z,20.77
2022-11-01T03:18:10.045Z,26.93
2022-11-01T03:24:36.398Z,17.80
2022-11-01T03:27:34.383Z,37.57
2022-11-01T03:30:24.346Z,22.80
2022-11-01T03:33:16.257Z,22.53
2022-11-01T03:36:13.486Z,18.07
2022-11-01T03:39:08.278Z,18.03
2022-11-01T03:42:02.719Z,17.40
2022-11-01T03:45:00.165Z,19.67
2022-11-01T03:47:49.795Z,17.53
2022-11-01T03:50:40.455Z,16.03
2022-11-01T03:57:31.488Z,15.77
2022-11-01T04:00:25.575Z,18.97
2022-11-01T04:03:15.497Z,16.23
2022-11-01T04:06:05.681Z,22.77
2022-11-01T04:17:17.066Z,17.20
2022-11-01T04:20:24.505Z,19.33
2022-11-01T04:27:15.473Z,15.43
2022-11-01T04:30:05.286Z,22.30
2022-11-01T04:32:56.493Z,24.97
2022-11-01T04:35:46.854Z,20.40
2022-11-01T04:38:36.275Z,18.67
2022-11-01T04:45:27.076Z,25.20
2022-11-01T04:48:17.953Z,28.40
2022-11-01T04:51:07.452Z,16.70
2022-11-01T04:57:58.672Z,30.03
2022-11-01T05:00:48.266Z,23.30
2022-11-01T05:03:39.610Z,19.70
2022-11-01T05:06:30.050Z,21.33
2022-11-01T05:13:21.150Z,17.67
2022-11-01T05:16:19.272Z,20.17
2022-11-01T05:19:10.697Z,17.57
2022-11-01T05:22:00.777Z,20.70
2022-11-01T05:28:51.699Z,18.73
2022-11-01T05:43:47.118Z,19.57
2022-11-01T05:46:36.588Z,18.47
2022-11-01T05:49:26.016Z,21.53
2022-11-01T06:03:38.097Z,17.97
2022-11-01T06:06:27.506Z,35.20
2022-11-01T06:09:17.178Z,38.93
2022-11-01T06:16:10.657Z,20.03
2022-11-01T06:19:00.145Z,17.40
2022-11-01T06:29:52.736Z,20.80
2022-11-01T06:32:43.638Z,22.53
2022-11-01T06:35:33.236Z,23.67
2022-11-01T06:38:22.685Z,16.90
2022-11-01T06:44:28.692Z,27.83
2022-11-01T06:51:20.756Z,25.30
2022-11-01T06:54:10.135Z,19.10
2022-11-01T07:01:10.734Z,16.70
2022-11-01T07:04:00.524Z,21.03
2022-11-01T07:06:51.675Z,21.47
2022-11-01T07:22:27.017Z,20.63
2022-11-01T07:25:16.570Z,18.00
2022-11-01T07:35:24.215Z,26.47
2022-11-01T07:38:16.259Z,14.23
2022-11-01T07:41:06.535Z,14.67
2022-11-01T07:48:03.095Z,17.97
2022-11-01T07:50:52.776Z,13.57
2022-11-01T07:53:44.137Z,12.40
2022-11-01T07:56:33.457Z,14.97
2022-11-01T08:02:39.926Z,16.23
2022-11-01T08:05:29.304Z,13.80
2022-11-01T08:08:19.163Z,16.23
2022-11-01T08:11:10.026Z,12.53
2022-11-01T08:14:02.920Z,14.63
2022-11-01T08:21:37.302Z,17.87
2022-11-01T08:24:26.721Z,12.30
2022-11-01T08:27:17.950Z,12.93
2022-11-01T08:30:08.393Z,14.27
2022-11-01T08:49:05.101Z,13.50
2022-11-01T09:04:01.107Z,12.63
2022-11-01T09:22:40.848Z,11.63
2022-11-01T09:46:01.456Z,12.20
2022-11-01T10:09:30.505Z,11.40
2022-11-01T10:43:57.898Z,11.13
2022-11-01T11:18:42.573Z,12.40
2022-11-01T11:26:05.531Z,12.60
2022-11-01T11:28:59.016Z,13.67
2022-11-01T11:36:00.448Z,12.93
2022-11-01T11:42:52.782Z,14.17
2022-11-01T11:49:45.548Z,12.40
2022-11-01T12:00:39.901Z,13.07
2022-11-01T12:03:29.939Z,13.57
2022-11-01T12:06:23.139Z,13.27
2022-11-01T12:17:28.490Z,13.10
2022-11-01T12:20:20.401Z,12.37
2022-11-01T12:27:50.880Z,13.57
2022-11-01T12:30:42.299Z,13.27
2022-11-01T12:33:36.203Z,12.40
2022-11-01T12:36:32.494Z,12.57
2022-11-01T12:43:30.348Z,13.83
2022-11-01T12:46:30.662Z,12.83
2022-11-01T12:49:31.584Z,11.87
2022-11-01T12:52:28.701Z,11.33
2022-11-01T12:59:26.262Z,10.90
2022-11-01T13:06:42.879Z,10.70
2022-11-01T13:13:41.402Z,11.57
2022-11-01T13:16:38.480Z,11.43
2022-11-01T13:19:34.284Z,11.50
2022-11-01T13:22:33.165Z,12.07
2022-11-01T13:29:37.070Z,13.00
2022-11-01T13:32:35.668Z,13.80
2022-11-01T13:35:46.831Z,12.20
2022-11-01T13:38:43.127Z,12.20
2022-11-01T13:50:38.850Z,10.87
2022-11-01T13:53:36.049Z,12.33
2022-11-01T14:04:59.459Z,13.60
2022-11-01T14:08:29.133Z,13.43
2022-11-01T14:15:27.360Z,13.50
2022-11-01T14:18:17.136Z,14.33
2022-11-01T14:21:29.141Z,15.23
2022-11-01T14:24:35.126Z,14.73
2022-11-01T14:35:35.895Z,16.37
2022-11-01T14:46:31.061Z,19.23
2022-11-01T14:49:33.954Z,17.23
2022-11-01T14:52:32.273Z,17.70
2022-11-01T14:59:24.680Z,16.67
2022-11-01T15:02:14.514Z,16.57
2022-11-01T15:05:04.386Z,14.60
2022-11-01T15:07:57.188Z,13.27
2022-11-01T15:18:53.261Z,12.93
2022-11-01T15:21:47.404Z,14.63
2022-11-01T15:24:39.257Z,13.17
2022-11-01T15:27:35.462Z,14.13
2022-11-01T15:30:27.842Z,14.77
2022-11-01T15:33:21.518Z,15.07
2022-11-01T15:36:23.609Z,16.43
2022-11-01T15:39:21.775Z,15.70
2022-11-01T15:42:23.984Z,14.67
2022-11-01T15:45:28.508Z,14.43
2022-11-01T15:48:22.660Z,13.83
2022-11-01T15:51:23.401Z,14.53
2022-11-01T15:54:27.983Z,15.23
2022-11-01T15:57:29.821Z,12.73
2022-11-01T16:00:22.679Z,16.57
2022-11-01T16:03:18.508Z,16.43
2022-11-01T16:06:16.208Z,16.83
2022-11-01T16:09:09.628Z,15.23
2022-11-01T16:12:01.850Z,14.53
2022-11-01T16:14:59.260Z,15.27
2022-11-01T16:17:49.009Z,16.07
2022-11-01T16:20:42.648Z,15.83
2022-11-01T16:23:32.831Z,14.60
2022-11-01T16:26:22.603Z,16.50
2022-11-01T16:29:17.085Z,14.73
2022-11-01T16:32:10.492Z,14.50
2022-11-01T16:35:01.442Z,13.27
2022-11-01T16:37:51.151Z,14.80
2022-11-01T16:40:41.294Z,13.07
2022-11-01T16:43:33.918Z,15.40
2022-11-01T16:46:25.119Z,13.20
2022-11-01T16:49:22.484Z,17.90
2022-11-01T16:52:13.419Z,16.93
2022-11-01T16:55:04.015Z,15.03
2022-11-01T16:57:54.122Z,17.43
2022-11-01T17:00:45.235Z,16.50
2022-11-01T17:03:34.964Z,16.17
2022-11-01T17:06:27.178Z,16.70
2022-11-01T17:09:19.187Z,15.43
2022-11-01T17:12:09.364Z,12.90
2022-11-01T17:14:59.257Z,13.20
2022-11-01T17:17:51.580Z,14.27
2022-11-01T17:20:43.189Z,13.03
2022-11-01T17:23:36.029Z,13.40
2022-11-01T17:26:25.889Z,12.90
2022-11-01T17:29:16.172Z,12.83
2022-11-01T17:32:10.550Z,12.50
2022-11-01T17:35:00.219Z,14.40
2022-11-01T17:37:49.922Z,14.10
2022-11-01T17:40:42.242Z,13.27
2022-11-01T17:43:32.361Z,14.10
2022-11-01T17:46:27.909Z,12.53
2022-11-01T17:49:21.934Z,13.07
2022-11-01T17:52:12.508Z,13.03
2022-11-01T17:55:02.340Z,12.10
2022-11-01T17:57:54.084Z,12.83
2022-11-01T18:00:44.898Z,12.37
2022-11-01T18:03:34.581Z,11.67
2022-11-01T18:06:24.440Z,11.60
2022-11-01T18:09:23.270Z,12.23
2022-11-01T18:12:21.037Z,10.73
2022-11-01T18:15:19.942Z,12.10
2022-11-01T18:18:26.868Z,9.87
2022-11-01T18:21:26.820Z,11.23
2022-11-01T18:24:22.593Z,11.07
2022-11-01T18:27:14.246Z,10.93
2022-11-01T18:30:13.408Z,11.50
2022-11-01T18:33:12.971Z,10.80
2022-11-01T18:36:10.800Z,11.17
2022-11-01T18:39:08.466Z,11.37
2022-11-01T18:41:58.471Z,10.07
2022-11-01T18:44:48.351Z,11.87
2022-11-01T18:47:44.400Z,11.70
2022-11-01T18:50:40.518Z,13.43
2022-11-01T18:53:34.581Z,10.27
2022-11-01T18:56:25.928Z,12.00
2022-11-01T18:59:18.978Z,12.37
2022-11-01T19:02:20.493Z,10.80
2022-11-01T19:05:19.497Z,12.77
2022-11-01T19:08:24.302Z,11.30
2022-11-01T19:11:15.316Z,14.03
2022-11-01T19:14:07.801Z,10.80
2022-11-01T19:17:02.183Z,12.30
2022-11-01T19:19:57.290Z,13.53
2022-11-01T19:22:50.040Z,12.20
2022-11-01T19:25:46.910Z,11.87
2022-11-01T19:28:42.788Z,13.30
2022-11-01T19:31:39.776Z,13.23
2022-11-01T19:34:31.820Z,11.80
2022-11-01T19:38:03.898Z,10.40
2022-11-01T19:40:56.462Z,10.67
2022-11-01T19:43:46.815Z,10.77
2022-11-01T19:46:37.605Z,12.37
2022-11-01T19:49:30.580Z,11.03
2022-11-01T19:52:28.146Z,11.00
2022-11-01T19:55:43.999Z,12.10
2022-11-01T19:58:50.183Z,12.53
2022-11-01T20:01:42.578Z,10.50
2022-11-01T20:04:33.062Z,12.27
2022-11-01T20:07:27.537Z,12.47
2022-11-01T20:10:18.144Z,10.20
2022-11-01T20:13:08.405Z,10.97
2022-11-01T20:16:00.318Z,10.07
2022-11-01T20:18:50.019Z,11.13
2022-11-01T20:21:40.059Z,11.13
2022-11-01T20:24:32.942Z,11.30
2022-11-01T20:27:23.265Z,9.60
2022-11-01T20:30:13.906Z,11.40
2022-11-01T20:33:07.043Z,10.03
2022-11-01T20:35:57.360Z,10.00
2022-11-01T20:38:47.419Z,12.27
2022-11-01T20:41:37.467Z,10.33
2022-11-01T20:44:27.616Z,10.63
2022-11-01T20:47:17.588Z,9.63
2022-11-01T20:50:10.447Z,14.23
2022-11-01T20:53:00.082Z,10.70
2022-11-01T20:55:49.889Z,12.07
2022-11-01T20:58:41.785Z,9.10
2022-11-01T21:01:31.646Z,10.47
2022-11-01T21:04:22.540Z,11.93
2022-11-01T21:07:15.507Z,12.53
2022-11-01T21:10:25.299Z,11.63
2022-11-01T21:13:26.461Z,11.93
2022-11-01T21:16:25.680Z,12.17
2022-11-01T21:19:22.060Z,10.70
2022-11-01T21:22:21.462Z,9.60
2022-11-01T21:25:28.925Z,10.50
2022-11-01T21:28:28.834Z,9.67
2022-11-01T21:31:28.073Z,9.80
2022-11-01T21:34:28.180Z,10.90
2022-11-01T21:37:23.501Z,11.90
2022-11-01T21:40:27.510Z,10.93
2022-11-01T21:43:31.160Z,10.50
2022-11-01T21:46:23.208Z,11.10
2022-11-01T21:49:26.232Z,12.07
2022-11-01T21:52:16.322Z,12.20
2022-11-01T21:55:08.159Z,11.20
2022-11-01T21:57:57.767Z,10.37
2022-11-01T22:00:47.511Z,11.43
2022-11-01T22:03:37.081Z,11.27
2022-11-01T22:06:26.949Z,10.80
2022-11-01T22:09:17.041Z,9.43
2022-11-01T22:12:09.120Z,13.40
2022-11-01T22:14:58.764Z,13.47
2022-11-01T22:17:48.377Z,10.33
2022-11-01T22:20:37.892Z,10.63
2022-11-01T22:23:27.768Z,10.23
2022-11-01T22:26:17.700Z,9.73
2022-11-01T22:29:08.770Z,10.97
2022-11-01T22:31:58.420Z,12.47
2022-11-01T22:34:47.921Z,12.50
2022-11-01T22:37:38.108Z,11.17
2022-11-01T22:40:27.998Z,9.83
2022-11-01T22:43:19.460Z,10.20
2022-11-01T22:46:22.347Z,11.90
2022-11-01T22:49:16.931Z,11.90
2022-11-01T22:52:16.388Z,11.60
2022-11-01T22:55:19.860Z,11.43
2022-11-01T22:58:32.640Z,12.97
2022-11-01T23:01:27.989Z,11.00
2022-11-01T23:04:24.028Z,11.93
2022-11-01T23:07:27.640Z,11.60
2022-11-01T23:10:31.496Z,13.37
2022-11-01T23:13:43.559Z,12.87
2022-11-01T23:16:41.279Z,11.23
2022-11-01T23:19:30.830Z,12.57
2022-11-01T23:22:23.482Z,11.17
2022-11-01T23:25:13.121Z,11.73
2022-11-01T23:28:02.621Z,12.47
2022-11-01T23:30:52.762Z,10.90
2022-11-01T23:33:45.839Z,17.43
2022-11-01T23:36:38.241Z,13.23
2022-11-01T23:39:37.600Z,13.67
2022-11-01T23:42:28.982Z,12.73
2022-11-01T23:45:29.687Z,12.63
2022-11-01T23:48:20.288Z,12.83
2022-11-01T23:51:16.048Z,12.30
2022-11-01T23:54:07.981Z,17.57
2022-11-01T23:56:57.940Z,14.03
2022-11-01T23:59:47.540Z,11.47
